Time;durP1;ratioP1;P1;durP2;ratioP2;P2;SDS_P1;SDS_P2;PMS_P1;PMS_P2;Temp;Humidity;BMP_temperature;BMP_pressure;BME280_temperature;BME280_humidity;BME280_pressure;Samples;Min_cycle;Max_cycle;Signal;HPM_P1;HPM_P2
2022/09/08 00:02:12;;;;;;;3.55;3.20;;;;;;;20.42;68.40;96470.72;10543716;28;20055;-59
2022/09/08 00:07:32;;;;;;;3.10;2.90;;;;;;;20.42;68.25;96470.72;10543868;28;20052;-59
2022/09/08 00:12:53;;;;;;;3.10;2.80;;;;;;;20.42;68.17;96476.16;10531831;28;20055;-59
2022/09/08 00:18:13;;;;;;;3.50;3.08;;;;;;;20.42;68.12;96468.81;10542439;28;20127;-59
2022/09/08 00:23:32;;;;;;;3.45;3.15;;;;;;;20.42;68.22;96463.41;10541414;28;20036;-59
2022/09/08 00:28:52;;;;;;;3.35;2.78;;;;;;;20.42;68.13;96459.91;10545942;28;20051;-59
2022/09/08 00:34:11;;;;;;;3.05;2.85;;;;;;;20.42;68.19;96454.50;10543083;28;20056;-60
2022/09/08 00:39:30;;;;;;;3.40;3.10;;;;;;;20.42;68.15;96449.09;10545173;28;20056;-59
2022/09/08 00:44:50;;;;;;;3.20;2.90;;;;;;;20.42;68.25;96435.56;10518421;28;20110;-59
2022/09/08 00:50:13;;;;;;;2.90;2.70;;;;;;;20.42;68.08;96438.25;10542248;28;20094;-59
2022/09/08 00:55:36;;;;;;;3.45;2.97;;;;;;;20.42;68.05;96432.84;10532611;28;20060;-59
2022/09/08 01:00:56;;;;;;;3.25;2.95;;;;;;;20.42;68.09;96422.03;10551634;28;20047;-58
2022/09/08 01:12:44;;;;;;;3.10;2.80;;;;;;;20.41;68.11;96415.06;10533813;28;20075;-59
2022/09/08 01:18:03;;;;;;;2.80;2.60;;;;;;;20.41;67.96;96412.34;10542025;28;20040;-59
2022/09/08 01:23:53;;;;;;;2.88;2.67;;;;;;;20.41;67.96;96420.47;10522894;28;20052;-60
2022/09/08 01:29:15;;;;;;;2.90;2.60;;;;;;;20.40;67.96;96419.66;10535830;28;20063;-60
2022/09/08 01:34:39;;;;;;;2.90;2.70;;;;;;;20.41;68.02;96417.75;10554175;28;20040;-60
2022/09/08 01:39:59;;;;;;;3.30;3.00;;;;;;;20.40;67.90;96422.38;10538708;28;20064;-60
2022/09/08 01:45:18;;;;;;;3.45;3.15;;;;;;;20.41;67.86;96412.34;10553315;28;20043;-59
2022/09/08 01:50:37;;;;;;;3.17;2.88;;;;;;;20.40;67.83;96414.25;10564089;28;20047;-59
2022/09/08 01:55:57;;;;;;;3.28;2.97;;;;;;;20.39;67.82;96406.50;10539523;28;20414;-60
2022/09/08 02:01:17;;;;;;;2.97;2.78;;;;;;;20.40;67.90;96402.66;10552629;28;20090;-60
2022/09/08 02:06:36;;;;;;;2.88;2.58;;;;;;;20.39;67.85;96401.09;10525183;28;20056;-60
2022/09/08 02:11:55;;;;;;;3.35;2.95;;;;;;;20.40;67.90;96408.84;10534916;28;20040;-59
2022/09/08 02:17:14;;;;;;;3.15;2.88;;;;;;;20.38;67.78;96408.38;10549609;28;20517;-60
2022/09/08 02:22:34;;;;;;;2.90;2.70;;;;;;;20.39;67.82;96399.16;10529314;28;20052;-59
2022/09/08 02:27:53;;;;;;;3.00;2.70;;;;;;;20.39;67.74;96401.09;10526480;28;20057;-59
2022/09/08 02:33:15;;;;;;;3.25;2.80;;;;;;;20.39;67.93;96392.97;10540991;28;20422;-60
2022/09/08 02:38:34;;;;;;;2.83;2.63;;;;;;;20.39;67.67;96390.25;10537826;28;20392;-59
2022/09/08 02:43:54;;;;;;;2.95;2.67;;;;;;;20.39;67.72;96379.44;10525043;28;20083;-59
2022/09/08 02:49:13;;;;;;;2.58;2.38;;;;;;;20.38;67.64;96377.84;10538232;28;20052;-60
2022/09/08 02:54:33;;;;;;;3.10;2.90;;;;;;;20.38;67.82;96372.44;10547456;28;20060;-60
2022/09/08 02:59:52;;;;;;;3.05;2.75;;;;;;;20.38;67.68;96367.03;10554290;28;20043;-59
2022/09/08 03:05:12;;;;;;;3.00;2.70;;;;;;;20.38;67.65;96364.31;10551292;28;20040;-60
2022/09/08 03:10:32;;;;;;;3.20;2.90;;;;;;;20.38;67.67;96335.34;10561142;28;20048;-59
2022/09/08 03:15:51;;;;;;;3.10;2.80;;;;;;;20.38;67.73;96326.44;10539831;28;20056;-59
2022/09/08 03:21:12;;;;;;;2.92;2.67;;;;;;;20.37;67.55;96316.78;10559323;28;20087;-60
2022/09/08 03:26:32;;;;;;;2.72;2.53;;;;;;;20.37;67.50;96303.25;10551068;28;20056;-59
2022/09/08 03:31:52;;;;;;;2.65;2.45;;;;;;;20.37;67.54;96314.84;10544901;28;20043;-59
2022/09/08 03:37:11;;;;;;;2.80;2.60;;;;;;;20.38;67.52;96324.53;10545143;28;20069;-59
2022/09/08 03:42:34;;;;;;;2.88;2.67;;;;;;;20.38;67.54;96329.94;10544803;28;20052;-59
2022/09/08 03:47:53;;;;;;;3.00;2.80;;;;;;;20.36;67.59;96313.25;10531857;28;20059;-59
2022/09/08 03:53:13;;;;;;;3.40;3.10;;;;;;;20.37;67.49;96305.94;10544542;28;20098;-59
2022/09/08 03:58:32;;;;;;;3.22;2.95;;;;;;;20.37;67.58;96297.84;10527257;28;20097;-59
2022/09/08 04:03:52;;;;;;;3.47;3.17;;;;;;;20.37;67.48;96278.91;10548383;28;20552;-59
2022/09/08 04:09:11;;;;;;;4.07;3.30;;;;;;;20.37;67.08;96268.06;10562505;28;20109;-59
2022/09/08 04:14:30;;;;;;;4.30;3.90;;;;;;;20.33;66.69;96266.03;10543789;28;20121;-59
2022/09/08 04:19:50;;;;;;;4.80;4.30;;;;;;;20.34;66.58;96245.97;10536474;28;20063;-58
2022/09/08 04:25:10;;;;;;;4.88;4.47;;;;;;;20.33;66.12;96257.94;10543633;28;20071;-59
2022/09/08 04:30:29;;;;;;;5.20;4.70;;;;;;;20.32;65.97;96271.78;10544627;28;20044;-58
2022/09/08 04:35:49;;;;;;;5.03;4.43;;;;;;;20.30;65.64;96279.47;10543192;28;20055;-60
2022/09/08 04:41:10;;;;;;;6.63;6.03;;;;;;;20.25;64.83;96285.13;10573782;28;20387;-60
2022/09/08 04:46:31;;;;;;;5.43;5.03;;;;;;;20.22;64.97;96280.38;10583161;28;20101;-59
2022/09/08 04:51:52;;;;;;;6.07;5.50;;;;;;;20.24;65.04;96284.31;10557164;28;20035;-59
2022/09/08 04:57:15;;;;;;;5.95;5.45;;;;;;;20.25;65.19;96282.41;10568129;28;20052;-60
2022/09/08 05:02:34;;;;;;;11.75;6.43;;;;;;;20.25;65.12;96288.59;10563181;28;20051;-60
2022/09/08 05:07:53;;;;;;;8.02;5.78;;;;;;;20.26;65.17;96290.16;10572342;28;20172;-60
2022/09/08 05:13:13;;;;;;;13.70;7.07;;;;;;;20.27;65.53;96275.53;10555179;28;20051;-60
2022/09/08 05:18:32;;;;;;;17.65;8.27;;;;;;;20.28;65.72;96276.31;10546891;28;20055;-60
2022/09/08 05:23:53;;;;;;;17.67;8.98;;;;;;;20.28;65.94;96270.91;10560972;28;20102;-58
2022/09/08 05:29:12;;;;;;;13.10;8.02;;;;;;;20.28;65.81;96266.25;10554088;28;20044;-60
2022/09/08 05:34:32;;;;;;;14.13;8.63;;;;;;;20.28;65.90;96263.56;10540602;28;20060;-60
2022/09/08 05:39:52;;;;;;;12.27;7.93;;;;;;;20.30;65.91;96264.00;10560761;28;20056;-60
2022/09/08 05:45:11;;;;;;;12.70;7.82;;;;;;;20.29;65.86;96262.44;10578152;28;20055;-59
2022/09/08 05:50:34;;;;;;;14.30;8.10;;;;;;;20.29;66.05;96248.16;10529394;28;20490;-60
2022/09/08 05:56:05;;;;;;;12.73;7.50;;;;;;;20.28;65.99;96247.34;10571112;28;20056;-59
2022/09/08 06:01:26;;;;;;;11.77;7.30;;;;;;;20.29;65.95;96235.41;10588911;28;20043;-59
2022/09/08 06:06:46;;;;;;;11.07;8.00;;;;;;;20.29;66.03;96234.63;10576422;28;20039;-60
2022/09/08 06:12:07;;;;;;;10.38;7.53;;;;;;;20.30;66.16;96230.78;10589672;28;20057;-58
2022/09/08 06:17:27;;;;;;;10.35;7.22;;;;;;;20.29;66.21;96235.41;10560318;28;20498;-60
2022/09/08 06:22:46;;;;;;;13.02;8.00;;;;;;;20.30;66.11;96233.47;10557053;28;20044;-60
2022/09/08 06:28:26;;;;;;;10.45;7.25;;;;;;;20.29;66.25;96223.78;10573039;28;20104;-60
2022/09/08 06:33:46;;;;;;;11.18;7.43;;;;;;;20.29;66.25;96230.00;10533953;28;20047;-60
2022/09/08 06:39:16;;;;;;;12.75;7.20;;;;;;;20.29;66.18;96221.88;10530076;28;20052;-59
2022/09/08 06:44:37;;;;;;;10.02;6.82;;;;;;;20.30;66.22;96226.13;10538300;28;20056;-60
2022/09/08 06:49:57;;;;;;;11.82;7.63;;;;;;;20.29;66.25;96231.91;10534141;28;20049;-60
2022/09/08 06:55:52;;;;;;;12.77;7.45;;;;;;;20.29;66.39;96234.63;10537434;28;20044;-60
2022/09/08 07:01:24;;;;;;;11.88;7.20;;;;;;;20.30;66.35;96252.41;10520248;28;20044;-60
2022/09/08 07:07:25;;;;;;;12.00;7.53;;;;;;;20.30;66.31;96260.53;10512713;28;20052;-60
2022/09/08 07:12:59;;;;;;;11.10;7.70;;;;;;;20.29;66.41;96257.03;10564307;28;20096;-60
2022/09/08 07:18:30;;;;;;;10.43;7.50;;;;;;;20.29;66.30;96256.25;10526510;28;20119;-60
2022/09/08 07:23:50;;;;;;;9.93;7.00;;;;;;;20.30;66.47;96258.59;10530052;28;20055;-58
2022/09/08 07:29:26;;;;;;;9.30;7.57;;;;;;;20.29;66.40;96258.97;10537895;28;20055;-60
2022/09/08 07:34:53;;;;;;;9.63;7.55;;;;;;;20.29;66.52;96251.63;10537203;28;20093;-60
2022/09/08 07:40:16;;;;;;;9.18;6.97;;;;;;;20.30;66.53;96255.09;10527356;28;20407;-60
2022/09/08 07:45:59;;;;;;;10.25;7.00;;;;;;;20.30;66.63;96242.38;10548467;28;20047;-60
2022/09/08 07:51:21;;;;;;;8.15;6.72;;;;;;;20.30;66.72;96236.97;10536783;28;20131;-60
2022/09/08 07:56:42;;;;;;;9.57;6.78;;;;;;;20.30;66.71;96230.78;10539724;28;20047;-60
2022/09/08 08:02:29;;;;;;;8.32;6.70;;;;;;;20.30;66.86;96228.84;10537086;28;20059;-60
2022/09/08 08:08:23;;;;;;;9.43;7.38;;;;;;;20.30;66.92;96236.19;10539996;28;20125;-60
2022/09/08 08:13:55;;;;;;;11.18;7.15;;;;;;;20.30;66.89;96234.25;10539260;28;20168;-60
2022/09/08 08:19:27;;;;;;;8.10;6.65;;;;;;;20.31;66.90;96248.59;10531371;28;20048;-58
2022/09/08 08:25:19;;;;;;;7.47;6.65;;;;;;;20.30;66.94;96258.59;10533237;28;20047;-61
2022/09/08 08:30:43;;;;;;;8.07;6.75;;;;;;;20.29;66.85;96256.25;10553951;28;20483;-60
2022/09/08 08:36:15;;;;;;;9.32;6.75;;;;;;;20.29;66.83;96232.69;10556516;28;20040;-60
2022/09/08 08:42:05;;;;;;;10.10;6.85;;;;;;;20.30;67.20;96242.38;10541046;28;20055;-58
2022/09/08 08:47:43;;;;;;;8.40;6.82;;;;;;;20.29;66.98;96257.03;10542657;28;20052;-60
2022/09/08 08:53:21;;;;;;;9.80;7.17;;;;;;;20.30;67.00;96268.63;10541547;28;20044;-60
2022/09/08 08:58:59;;;;;;;8.52;7.03;;;;;;;20.30;66.98;96285.66;10547268;28;20040;-59
2022/09/08 09:04:36;;;;;;;7.37;6.03;;;;;;;20.30;66.95;96291.06;10555532;28;20419;-60
2022/09/08 09:10:05;;;;;;;7.33;6.53;;;;;;;20.31;67.01;96303.47;10541380;28;20055;-60
2022/09/08 09:15:34;;;;;;;6.78;6.07;;;;;;;20.31;67.06;96311.59;10534551;28;20101;-60
2022/09/08 09:20:58;;;;;;;7.65;6.55;;;;;;;20.31;67.06;96319.69;10537825;28;20063;-60
2022/09/08 09:26:19;;;;;;;7.00;6.28;;;;;;;20.30;66.95;96318.09;10553162;28;20047;-59
2022/09/08 09:31:42;;;;;;;7.30;6.50;;;;;;;20.31;66.89;96314.28;10535805;28;20124;-60
2022/09/08 09:37:33;;;;;;;7.18;6.40;;;;;;;20.31;67.04;96335.16;10566166;28;20048;-60
2022/09/08 09:43:12;;;;;;;7.80;7.00;;;;;;;20.30;66.91;96334.34;10523959;28;20078;-59
2022/09/08 09:48:46;;;;;;;7.50;6.70;;;;;;;20.31;67.09;96344.03;10538774;28;20063;-60
2022/09/08 09:54:24;;;;;;;6.53;5.82;;;;;;;20.30;67.02;96353.28;10532171;28;20052;-60
2022/09/08 10:00:07;;;;;;;7.30;6.60;;;;;;;20.30;67.02;96353.28;10566399;28;20047;-60
2022/09/08 10:05:59;;;;;;;6.85;6.20;;;;;;;20.30;67.05;96358.69;10524580;28;20051;-60
2022/09/08 10:11:37;;;;;;;7.47;6.22;;;;;;;20.29;66.91;96327.38;10539619;28;20070;-60
2022/09/08 10:17:18;;;;;;;6.68;5.90;;;;;;;20.30;67.08;96336.25;10536000;28;20415;-60
2022/09/08 10:22:51;;;;;;;6.72;6.05;;;;;;;20.31;67.06;96335.94;10533108;28;20047;-60
2022/09/08 10:28:34;;;;;;;6.63;6.03;;;;;;;20.31;66.88;96345.97;10551382;28;20047;-60
2022/09/08 10:34:22;;;;;;;6.97;6.28;;;;;;;20.31;66.91;96354.88;10508162;28;20047;-59
2022/09/08 10:40:18;;;;;;;7.55;6.00;;;;;;;20.31;67.07;96362.97;10537827;28;20108;-59
2022/09/08 10:45:38;;;;;;;6.65;6.05;;;;;;;20.30;67.00;96364.09;10536651;28;20040;-59
2022/09/08 10:51:23;;;;;;;6.78;6.03;;;;;;;20.30;67.04;96355.97;10554439;28;20040;-60
2022/09/08 10:56:44;;;;;;;6.72;6.05;;;;;;;20.32;67.00;96364.53;10533209;28;20394;-59
2022/09/08 11:02:31;;;;;;;6.13;5.53;;;;;;;20.30;67.05;96366.78;10537239;28;20499;-60
2022/09/08 11:08:21;;;;;;;6.10;5.50;;;;;;;20.31;67.02;96359.50;10493272;28;20109;-59
2022/09/08 11:14:01;;;;;;;6.22;5.63;;;;;;;20.32;66.94;96364.53;10546108;28;20047;-60
2022/09/08 11:19:39;;;;;;;5.95;5.40;;;;;;;20.32;67.01;96361.06;10537562;28;20048;-59
2022/09/08 11:25:12;;;;;;;;;;;;;;;20.31;66.95;96371.09;10537289;28;20056;-60
2022/09/08 11:30:44;;;;;;;5.60;5.10;;;;;;;20.32;66.94;96374.59;10553104;28;20385;-60
2022/09/08 11:36:25;;;;;;;5.47;4.97;;;;;;;20.32;66.87;96364.53;10524935;28;20410;-60
2022/09/08 11:41:51;;;;;;;5.30;4.85;;;;;;;20.33;66.95;96359.94;10580946;28;20051;-60
2022/09/08 11:47:13;;;;;;;5.57;5.07;;;;;;;20.33;66.84;96374.25;10575884;28;20411;-60
2022/09/08 11:52:45;;;;;;;5.72;5.20;;;;;;;20.32;67.00;96380.00;10548090;28;20520;-61
2022/09/08 11:58:44;;;;;;;5.28;4.78;;;;;;;20.33;66.89;96376.16;10543223;28;20068;-60
2022/09/08 12:04:14;;;;;;;5.38;4.75;;;;;;;20.32;66.97;96386.19;10546877;28;20052;-60
2022/09/08 12:09:55;;;;;;;4.95;4.53;;;;;;;20.32;66.78;96380.00;10553457;28;20048;-60
2022/09/08 12:15:30;;;;;;;5.38;4.68;;;;;;;20.33;66.92;96381.59;10577906;28;20056;-60
2022/09/08 12:21:07;;;;;;;5.60;4.68;;;;;;;20.32;66.90;96388.88;10547759;28;20039;-60
2022/09/08 12:26:40;;;;;;;5.10;4.60;;;;;;;20.32;66.84;96398.94;10543665;28;20054;-59
2022/09/08 12:32:09;;;;;;;5.40;4.82;;;;;;;20.32;66.77;96386.19;10556054;28;20440;-59
2022/09/08 12:37:37;;;;;;;7.13;4.32;;;;;;;20.32;67.01;96382.69;10551929;28;20476;-59
2022/09/08 12:43:06;;;;;;;4.72;4.25;;;;;;;20.30;66.75;96380.31;10587088;28;20445;-60
2022/09/08 12:48:34;;;;;;;4.90;4.07;;;;;;;20.32;66.79;96380.00;10564628;28;20139;-60
2022/09/08 12:54:18;;;;;;;4.33;4.03;;;;;;;20.31;66.70;96379.22;10574498;28;20044;-60
2022/09/08 12:59:42;;;;;;;5.40;4.10;;;;;;;20.30;66.76;96369.50;10566876;28;20044;-60
2022/09/08 13:05:05;;;;;;;4.25;3.85;;;;;;;20.32;66.75;96385.41;10559099;28;20524;-60
2022/09/08 13:10:33;;;;;;;4.50;4.10;;;;;;;20.31;66.77;96390.03;10559814;28;20513;-60
2022/09/08 13:15:56;;;;;;;4.60;4.13;;;;;;;20.32;66.80;96402.41;10562250;28;20056;-60
2022/09/08 13:21:28;;;;;;;4.13;3.80;;;;;;;20.31;66.70;96410.88;10571300;28;20108;-60
2022/09/08 13:26:56;;;;;;;4.25;3.85;;;;;;;20.32;66.71;96407.03;10541576;28;20052;-59
2022/09/08 13:32:42;;;;;;;5.50;3.88;;;;;;;20.32;66.65;96415.16;10562437;28;20096;-55
2022/09/08 13:38:07;;;;;;;3.70;3.40;;;;;;;20.32;66.71;96417.88;10559458;28;20055;-60
2022/09/08 13:43:41;;;;;;;4.03;3.63;;;;;;;20.31;66.85;96419.78;10530960;28;20048;-60
2022/09/08 13:49:07;;;;;;;3.85;3.50;;;;;;;20.31;66.79;96424.41;10513655;28;20043;-60
2022/09/08 13:55:02;;;;;;;3.88;3.55;;;;;;;20.32;66.68;96420.56;10509414;28;20052;-60
2022/09/08 14:00:23;;;;;;;3.60;3.30;;;;;;;20.31;66.78;96424.41;10538968;28;20487;-59
2022/09/08 14:05:44;;;;;;;4.20;3.80;;;;;;;20.30;66.64;96426.31;10539380;28;20048;-59
2022/09/08 14:11:19;;;;;;;4.32;3.67;;;;;;;20.30;66.67;96420.91;10511564;28;20250;-59
2022/09/08 14:16:39;;;;;;;3.22;3.03;;;;;;;20.31;66.57;96422.50;10524123;28;20044;-59
2022/09/08 14:22:39;;;;;;;3.63;3.28;;;;;;;20.30;66.59;96410.09;10523730;28;20051;-60
2022/09/08 14:27:59;;;;;;;4.10;3.08;;;;;;;20.31;66.79;96400.84;10524048;28;20129;-60
2022/09/08 14:33:24;;;;;;;3.60;3.30;;;;;;;20.31;66.72;96400.84;10538584;28;20048;-60
2022/09/08 14:39:06;;;;;;;3.35;3.05;;;;;;;20.31;66.70;96387.31;10564170;28;20543;-60
2022/09/08 14:44:51;;;;;;;3.45;3.20;;;;;;;20.30;66.59;96383.03;10516159;28;20059;-60
2022/09/08 14:50:15;;;;;;;3.38;3.08;;;;;;;20.31;66.63;96387.31;10522359;28;20044;-61
2022/09/08 14:55:39;;;;;;;3.30;3.05;;;;;;;20.32;66.63;96393.50;10552595;28;20042;-60
2022/09/08 15:01:14;;;;;;;2.75;2.55;;;;;;;20.31;66.59;96390.03;10521687;28;20059;-59
2022/09/08 15:06:39;;;;;;;2.90;2.60;;;;;;;20.30;66.76;96385.72;10538917;28;20044;-60
2022/09/08 15:12:14;;;;;;;3.22;2.92;;;;;;;20.32;66.70;96397.00;10539258;28;20048;-59
2022/09/08 15:17:36;;;;;;;3.53;3.22;;;;;;;20.33;66.68;96395.88;10522654;28;20060;-60
2022/09/08 15:22:58;;;;;;;4.13;3.08;;;;;;;20.32;66.72;96393.50;10553223;28;20039;-60
2022/09/08 15:28:20;;;;;;;4.45;2.78;;;;;;;20.33;66.99;96390.47;10545510;28;20062;-60
2022/09/08 15:34:16;;;;;;;3.90;2.70;;;;;;;20.34;67.04;96402.09;10557011;28;20059;-58
2022/09/08 15:39:39;;;;;;;5.38;3.30;;;;;;;20.35;67.05;96401.75;10556431;28;20040;-61
2022/09/08 15:45:30;;;;;;;5.10;2.88;;;;;;;20.36;67.28;96391.72;10577138;28;20058;-59
2022/09/08 15:51:15;;;;;;;4.38;2.80;;;;;;;20.38;67.43;96396.78;10529281;28;20552;-61
2022/09/08 15:57:12;;;;;;;7.40;3.00;;;;;;;20.38;67.43;96405.69;10543212;28;20059;-59
2022/09/08 16:02:46;;;;;;;5.90;3.10;;;;;;;20.39;67.56;96415.41;10566881;28;20044;-60
2022/09/08 16:08:18;;;;;;;5.07;3.30;;;;;;;20.40;67.58;96414.25;10574967;28;20128;-59
2022/09/08 16:13:46;;;;;;;5.47;2.70;;;;;;;20.42;67.73;96411.22;10572590;28;20044;-59
2022/09/08 16:19:11;;;;;;;3.63;2.93;;;;;;;20.43;67.88;96407.38;10581258;28;20047;-60
2022/09/08 16:24:43;;;;;;;3.72;3.10;;;;;;;20.42;67.66;96412.00;10581347;28;20056;-61
2022/09/08 16:30:09;;;;;;;2.80;2.60;;;;;;;20.41;67.71;96426.66;10570789;28;20443;-60
2022/09/08 16:36:09;;;;;;;4.43;2.58;;;;;;;20.43;67.91;96437.16;10556363;28;20412;-60
2022/09/08 16:41:31;;;;;;;6.53;2.80;;;;;;;20.43;67.99;96437.94;10574719;28;20056;-60
2022/09/08 16:46:51;;;;;;;4.97;2.50;;;;;;;20.44;67.92;96438.72;10572511;28;20052;-60
2022/09/08 16:52:26;;;;;;;4.78;2.30;;;;;;;20.44;68.09;96436.00;10556435;28;20047;-59
2022/09/08 16:58:08;;;;;;;7.40;2.30;;;;;;;20.44;68.08;96442.19;10549323;28;20036;-61
2022/09/08 17:03:51;;;;;;;2.72;1.85;;;;;;;20.41;67.90;96439.41;10541052;28;20048;-61
2022/09/08 17:09:11;;;;;;;3.58;2.17;;;;;;;20.40;67.76;96457.53;10563228;28;20483;-62
2022/09/08 17:14:30;;;;;;;4.43;1.83;;;;;;;20.39;67.74;96452.50;10551451;28;20051;-61
2022/09/08 17:19:52;;;;;;;2.10;1.80;;;;;;;20.38;67.64;96459.00;10571151;28;20047;-60
2022/09/08 17:25:51;;;;;;;3.17;2.00;;;;;;;20.37;67.56;96460.16;10569568;28;20063;-60
2022/09/08 17:31:24;;;;;;;2.42;2.03;;;;;;;20.37;67.37;96462.84;10360173;28;20057;-60
2022/09/08 17:37:13;;;;;;;4.03;2.00;;;;;;;20.35;67.23;96466.69;10561027;28;20070;-60
2022/09/08 17:42:52;;;;;;;3.63;1.67;;;;;;;20.35;67.26;96466.69;10569942;28;20395;-60
2022/09/08 17:48:16;;;;;;;2.72;1.90;;;;;;;20.36;67.28;96478.28;10570152;28;20498;-61
2022/09/08 17:53:53;;;;;;;2.92;2.00;;;;;;;20.36;67.37;96486.41;10545174;28;20044;-60
2022/09/08 17:59:50;;;;;;;3.53;2.10;;;;;;;20.37;67.70;96501.50;10549482;28;20079;-60
2022/09/08 18:05:09;;;;;;;2.85;2.00;;;;;;;20.37;67.78;96503.44;10541013;28;20063;-61
2022/09/08 18:10:49;;;;;;;2.33;1.95;;;;;;;20.37;67.92;96506.94;10566543;28;20066;-60
2022/09/08 18:16:32;;;;;;;3.42;1.50;;;;;;;20.36;67.38;96508.03;10527559;28;20055;-61
2022/09/08 18:22:01;;;;;;;1.50;1.40;;;;;;;20.34;67.39;96521.91;10559209;28;20104;-59
2022/09/08 18:27:50;;;;;;;3.33;1.70;;;;;;;20.34;67.56;96527.31;10555566;28;20052;-58
2022/09/08 18:33:12;;;;;;;2.63;1.58;;;;;;;20.36;67.66;96529.69;10569450;28;20051;-60
2022/09/08 18:38:45;;;;;;;3.55;1.70;;;;;;;20.35;67.94;96539.72;10541110;28;20059;-61
2022/09/08 18:44:25;;;;;;;3.35;1.75;;;;;;;20.37;67.92;96550.22;10535703;28;20081;-60
2022/09/08 18:50:03;;;;;;;2.55;1.48;;;;;;;20.36;67.99;96543.22;10536750;28;20051;-58
2022/09/08 18:55:30;;;;;;;1.90;1.70;;;;;;;20.37;68.30;96552.13;10540077;28;20032;-60
2022/09/08 19:00:59;;;;;;;2.08;1.73;;;;;;;20.38;68.42;96551.00;10537708;28;20059;-61
2022/09/08 19:06:30;;;;;;;3.60;1.80;;;;;;;20.38;68.66;96551.00;10537626;28;20105;-56
2022/09/08 19:12:17;;;;;;;4.57;1.95;;;;;;;20.39;68.72;96563.41;10561902;28;20548;-58
2022/09/08 19:17:55;;;;;;;4.00;1.80;;;;;;;20.39;68.51;96568.81;10517937;28;20056;-57
2022/09/08 19:23:18;;;;;;;4.75;1.63;;;;;;;20.38;68.59;96561.81;10550776;28;20445;-58
2022/09/08 19:28:39;;;;;;;2.92;1.48;;;;;;;20.37;68.40;96571.06;10540809;28;20040;-60
2022/09/08 19:34:19;;;;;;;2.40;1.42;;;;;;;20.35;67.92;96571.41;10537008;28;20503;-60
2022/09/08 19:39:44;;;;;;;4.30;1.85;;;;;;;20.37;68.23;96571.06;10559253;28;20384;-57
2022/09/08 19:45:19;;;;;;;1.80;1.35;;;;;;;20.37;68.22;96576.50;10544715;28;20044;-58
2022/09/08 19:50:55;;;;;;;3.13;1.60;;;;;;;20.38;68.58;96578.84;10553348;28;20048;-58
2022/09/08 19:56:17;;;;;;;2.55;1.60;;;;;;;20.39;68.48;96576.94;10545540;28;20048;-58
2022/09/08 20:01:43;;;;;;;4.03;1.77;;;;;;;20.38;68.52;96586.16;10555932;28;20048;-60
2022/09/08 20:07:19;;;;;;;2.72;1.70;;;;;;;20.37;68.79;96577.28;10568961;28;20075;-58
2022/09/08 20:12:49;;;;;;;2.50;1.50;;;;;;;20.39;68.90;96585.06;10548542;28;20047;-58
2022/09/08 20:18:11;;;;;;;3.42;1.58;;;;;;;20.40;69.01;96592.03;10583105;28;20078;-58
2022/09/08 20:24:06;;;;;;;8.63;1.50;;;;;;;20.41;69.20;96593.63;10573513;28;20036;-58
2022/09/08 20:29:43;;;;;;;2.13;1.45;;;;;;;20.41;69.17;96604.44;10522648;28;20414;-58
2022/09/08 20:35:31;;;;;;;5.65;1.48;;;;;;;20.41;69.21;96593.63;10565390;28;20048;-58
2022/09/08 20:41:15;;;;;;;1.80;1.60;;;;;;;20.41;69.12;96593.63;10546645;28;20052;-57
2022/09/08 20:46:57;;;;;;;3.58;1.75;;;;;;;20.41;69.24;96599.03;10526597;28;20540;-57
2022/09/08 20:52:28;;;;;;;2.25;1.50;;;;;;;20.42;69.05;96603.31;10542425;28;20048;-56
2022/09/08 20:58:00;;;;;;;3.28;1.48;;;;;;;20.42;69.26;96609.50;10553675;28;20364;-59
2022/09/08 21:03:25;;;;;;;2.97;1.50;;;;;;;20.41;69.27;96599.03;10541986;28;20056;-58
2022/09/08 21:08:51;;;;;;;2.47;1.50;;;;;;;20.42;69.19;96611.44;10544787;28;20404;-58
2022/09/08 21:14:10;;;;;;;1.85;1.40;;;;;;;20.40;69.05;96619.88;10541550;28;20101;-58
2022/09/08 21:19:34;;;;;;;1.52;1.30;;;;;;;20.40;68.95;96619.09;10541225;28;20044;-59
2022/09/08 21:25:19;;;;;;;2.92;1.45;;;;;;;20.39;68.97;96618.31;10550327;28;20498;-58
2022/09/08 21:30:44;;;;;;;1.88;1.10;;;;;;;20.39;68.97;96617.53;10554327;28;20051;-58
2022/09/08 21:36:18;;;;;;;2.40;1.40;;;;;;;20.40;68.88;96624.50;10540933;28;20048;-59
2022/09/08 21:41:39;;;;;;;1.90;1.33;;;;;;;20.38;68.86;96618.63;10548502;28;20059;-58
2022/09/08 21:47:23;;;;;;;1.85;1.33;;;;;;;20.39;68.70;96622.94;10542082;28;20044;-58
2022/09/08 21:52:52;;;;;;;1.58;1.40;;;;;;;20.38;68.82;96622.13;10534151;28;20487;-59
2022/09/08 21:58:15;;;;;;;1.48;1.17;;;;;;;20.38;68.95;96626.75;10542993;28;20108;-59
2022/09/08 22:03:46;;;;;;;2.00;1.35;;;;;;;20.38;68.83;96632.16;10524107;28;20052;-58
2022/09/08 22:09:12;;;;;;;1.45;1.10;;;;;;;20.38;68.90;96634.88;10530135;28;20064;-59
2022/09/08 22:14:45;;;;;;;2.72;1.40;;;;;;;20.38;68.98;96629.47;10538037;28;20051;-59
2022/09/08 22:20:42;;;;;;;1.40;1.30;;;;;;;20.35;68.72;96631.69;10523350;28;20537;-59
2022/09/08 22:26:02;;;;;;;1.48;1.30;;;;;;;20.35;68.89;96637.13;10552742;28;20051;-59
2022/09/08 22:31:35;;;;;;;2.70;1.38;;;;;;;20.37;68.74;96641.41;10552049;28;20048;-59
2022/09/08 22:37:09;;;;;;;2.08;1.38;;;;;;;20.37;68.75;96638.72;10568452;28;20039;-60
2022/09/08 22:42:42;;;;;;;1.65;1.30;;;;;;;20.35;68.85;96639.81;10468971;28;20045;-59
2022/09/08 22:48:15;;;;;;;1.50;1.30;;;;;;;20.36;68.76;96643.31;10496654;28;20131;-59
2022/09/08 22:53:37;;;;;;;1.58;1.25;;;;;;;20.35;68.82;96645.22;10496299;28;20131;-59
2022/09/08 22:58:58;;;;;;;1.67;1.38;;;;;;;20.36;68.70;96640.59;10491211;28;20408;-59
2022/09/08 23:04:29;;;;;;;2.83;1.30;;;;;;;20.35;68.76;96639.03;10498368;28;20499;-59
2022/09/08 23:10:01;;;;;;;1.95;1.30;;;;;;;20.35;68.75;96641.75;10496803;28;20041;-59
2022/09/08 23:15:26;;;;;;;1.80;1.20;;;;;;;20.36;68.72;96646.00;10486589;28;20063;-54
2022/09/08 23:20:51;;;;;;;1.85;1.52;;;;;;;20.35;68.75;96645.22;10509156;28;20044;-59
2022/09/08 23:26:22;;;;;;;1.98;1.45;;;;;;;20.34;68.70;96640.94;10495237;28;20102;-59
2022/09/08 23:31:46;;;;;;;4.45;1.25;;;;;;;20.33;68.68;96631.25;10498852;28;20048;-59
2022/09/08 23:37:10;;;;;;;2.15;1.15;;;;;;;20.34;68.61;96632.03;10511382;28;20508;-59
2022/09/08 23:42:44;;;;;;;1.52;1.13;;;;;;;20.34;68.77;96632.81;10502450;28;20044;-58
2022/09/08 23:48:05;;;;;;;1.98;1.17;;;;;;;20.33;68.61;96625.84;10498463;28;20056;-59
2022/09/08 23:53:28;;;;;;;1.00;1.00;;;;;;;20.33;68.76;96620.44;10503011;28;20106;-58
2022/09/08 23:58:51;;;;;;;1.88;1.00;;;;;;;20.34;68.64;96618.50;10502828;28;20053;-59
